createdAt,value
2019-04-13T00:05:31.136Z,3.04
2019-04-13T00:08:12.529Z,3.00
2019-04-13T00:11:11.521Z,2.93
2019-04-13T00:13:50.946Z,2.95
2019-04-13T00:16:30.267Z,2.89
2019-04-13T00:18:56.347Z,2.97
2019-04-13T00:21:22.324Z,2.94
2019-04-13T00:24:49.025Z,2.88
2019-04-13T00:27:15.008Z,3.03
2019-04-13T00:29:41.004Z,2.87
2019-04-13T00:35:44.281Z,2.84
2019-04-13T00:38:23.205Z,2.80
2019-04-13T00:41:02.338Z,2.87
2019-04-13T00:46:22.484Z,2.95
2019-04-13T00:48:48.491Z,3.00
2019-04-13T00:51:14.467Z,2.89
2019-04-13T00:54:00.625Z,2.95
2019-04-13T00:59:50.886Z,2.98
2019-04-13T01:02:36.761Z,2.96
2019-04-13T01:05:16.174Z,2.87
2019-04-13T01:07:55.220Z,2.84
2019-04-13T01:10:21.236Z,3.00
2019-04-13T01:13:07.140Z,2.87
2019-04-13T01:15:33.154Z,2.96
2019-04-13T01:17:59.162Z,2.94
2019-04-13T01:20:25.179Z,2.97
2019-04-13T01:23:11.072Z,2.74
2019-04-13T01:26:15.432Z,2.75
2019-04-13T01:28:41.443Z,2.81
2019-04-13T01:31:07.445Z,2.82
2019-04-13T01:33:33.524Z,2.71
2019-04-13T01:36:19.417Z,2.76
2019-04-13T01:39:06.105Z,2.82
2019-04-13T01:41:32.172Z,2.90
2019-04-13T01:43:58.242Z,2.73
2019-04-13T01:46:39.667Z,2.72
2019-04-13T01:49:05.653Z,2.68
2019-04-13T01:51:31.631Z,2.79
2019-04-13T01:54:17.550Z,2.84
2019-04-13T01:56:56.606Z,2.75
2019-04-13T01:59:35.861Z,2.66
2019-04-13T02:02:17.084Z,2.62
2019-04-13T02:05:18.186Z,2.64
2019-04-13T02:08:03.872Z,2.54
2019-04-13T02:10:54.596Z,2.53
2019-04-13T02:13:20.608Z,2.56
2019-04-13T02:16:06.502Z,2.65
2019-04-13T02:18:46.646Z,2.67
2019-04-13T02:21:25.713Z,2.66
2019-04-13T02:24:04.866Z,2.61
2019-04-13T02:26:43.894Z,2.58
2019-04-13T02:29:22.806Z,2.64
2019-04-13T02:32:01.800Z,2.65
2019-04-13T02:34:41.010Z,2.60
2019-04-13T02:37:20.795Z,2.72
2019-04-13T02:40:00.172Z,2.75
2019-04-13T02:42:39.981Z,2.86
2019-04-13T02:45:19.210Z,2.83
2019-04-13T02:47:58.221Z,2.88
2019-04-13T02:50:37.501Z,2.83
2019-04-13T02:53:03.504Z,2.95
2019-04-13T02:55:29.471Z,2.89
2019-04-13T02:57:55.491Z,2.82
2019-04-13T03:01:03.395Z,2.93
2019-04-13T03:06:28.836Z,2.90
2019-04-13T03:09:08.352Z,2.91
2019-04-13T03:11:49.336Z,2.99
2019-04-13T03:14:15.492Z,3.01
2019-04-13T03:17:21.228Z,2.99
2019-04-13T03:20:07.115Z,2.99
2019-04-13T03:22:33.089Z,3.06
2019-04-13T03:24:59.095Z,3.00
2019-04-13T03:27:44.948Z,3.03
2019-04-13T03:30:26.687Z,2.99
2019-04-13T03:36:10.689Z,2.86
2019-04-13T03:38:49.757Z,2.95
2019-04-13T03:41:48.755Z,3.03
2019-04-13T03:44:28.017Z,2.96
2019-04-13T03:46:54.036Z,2.97
2019-04-13T03:52:42.768Z,3.09
2019-04-13T03:55:21.928Z,3.09
2019-04-13T04:01:05.462Z,3.01
2019-04-13T04:03:31.432Z,3.01
2019-04-13T04:06:17.338Z,2.95
2019-04-13T04:08:56.419Z,3.00
2019-04-13T04:14:41.529Z,3.02
2019-04-13T04:17:07.601Z,3.05
2019-04-13T04:19:33.607Z,3.02
2019-04-13T04:24:56.063Z,2.91
2019-04-13T04:27:35.780Z,2.99
2019-04-13T04:33:30.106Z,2.78
2019-04-13T04:36:09.163Z,2.79
2019-04-13T04:38:35.169Z,2.81
2019-04-13T04:41:21.048Z,2.91
2019-04-13T04:43:47.044Z,3.03
2019-04-13T04:46:13.007Z,2.97
2019-04-13T04:48:52.830Z,3.01
2019-04-13T04:51:32.064Z,3.09
2019-04-13T04:53:58.074Z,3.14
2019-04-13T04:56:44.001Z,3.10
2019-04-13T05:02:20.766Z,3.13
2019-04-13T05:05:06.834Z,3.03
2019-04-13T05:07:32.870Z,3.08
2019-04-13T05:10:18.745Z,3.04
2019-04-13T05:12:58.341Z,3.01
2019-04-13T05:15:24.329Z,2.95
2019-04-13T05:17:50.295Z,3.06
2019-04-13T05:20:16.345Z,3.11
2019-04-13T05:23:02.248Z,3.11
2019-04-13T05:25:41.490Z,3.10
2019-04-13T05:28:07.510Z,3.08
2019-04-13T05:30:53.389Z,3.10
2019-04-13T05:33:54.389Z,3.19
2019-04-13T05:36:33.497Z,3.21
2019-04-13T05:41:58.841Z,3.10
2019-04-13T05:44:44.787Z,3.14
2019-04-13T05:47:24.490Z,3.14
2019-04-13T05:49:50.459Z,3.16
2019-04-13T05:52:36.348Z,3.19
2019-04-13T05:55:24.177Z,3.11
2019-04-13T05:58:12.225Z,3.12
2019-04-13T06:00:50.998Z,3.18
2019-04-13T06:03:30.041Z,3.25
2019-04-13T06:06:09.285Z,3.20
2019-04-13T06:08:36.039Z,3.24
2019-04-13T06:11:09.834Z,3.19
2019-04-13T06:13:35.860Z,3.29
2019-04-13T06:16:21.730Z,3.41
2019-04-13T06:19:01.429Z,3.53
2019-04-13T06:21:44.509Z,3.60
2019-04-13T06:24:42.080Z,3.74
2019-04-13T06:27:21.589Z,3.83
2019-04-13T06:30:02.565Z,3.75
2019-04-13T06:32:46.404Z,3.77
2019-04-13T06:38:03.880Z,4.38
2019-04-13T06:44:08.526Z,4.92
2019-04-13T06:46:47.521Z,5.17
2019-04-13T06:49:14.810Z,5.37
2019-04-13T06:52:08.017Z,5.42
2019-04-13T06:54:46.925Z,5.52
2019-04-13T06:57:29.110Z,5.77
2019-04-13T07:06:47.529Z,6.27
2019-04-13T07:09:20.512Z,6.76
2019-04-13T07:12:06.616Z,6.78
2019-04-13T07:14:32.652Z,7.01
2019-04-13T07:19:56.370Z,7.54
2019-04-13T07:22:55.621Z,7.63
2019-04-13T07:25:34.818Z,7.64
2019-04-13T07:28:13.868Z,7.37
2019-04-13T07:30:52.924Z,7.46
2019-04-13T07:33:32.085Z,7.42
2019-04-13T07:36:11.536Z,7.07
2019-04-13T07:39:11.133Z,7.12
2019-04-13T07:41:37.188Z,7.14
2019-04-13T07:52:43.236Z,6.54
2019-04-13T07:55:22.852Z,6.78
2019-04-13T07:57:48.815Z,6.81
2019-04-13T08:00:59.930Z,6.70
2019-04-13T08:03:25.901Z,6.68
2019-04-13T08:06:04.902Z,6.79
2019-04-13T08:08:46.010Z,6.86
2019-04-13T08:11:26.141Z,7.18
2019-04-13T08:14:11.053Z,7.11
2019-04-13T08:16:37.074Z,7.39
2019-04-13T08:19:36.208Z,7.34
2019-04-13T08:22:15.559Z,8.21
2019-04-13T08:24:54.631Z,8.74
2019-04-13T08:27:20.656Z,9.01
2019-04-13T08:30:07.740Z,8.94
2019-04-13T08:32:46.699Z,9.14
2019-04-13T08:35:26.169Z,9.03
2019-04-13T08:38:12.882Z,8.86
2019-04-13T08:40:32.940Z,8.61
2019-04-13T08:43:18.880Z,8.49
2019-04-13T08:45:45.014Z,8.33
2019-04-13T08:48:22.628Z,7.87
2019-04-13T08:51:02.400Z,7.82
2019-04-13T08:53:42.314Z,7.78
2019-04-13T08:56:08.347Z,7.17
2019-04-13T08:58:54.220Z,6.45
2019-04-13T09:01:33.524Z,6.80
2019-04-13T09:03:59.487Z,6.85
2019-04-13T09:07:03.976Z,6.50
2019-04-13T09:15:37.340Z,7.09
2019-04-13T09:18:54.027Z,6.72
2019-04-13T09:21:43.978Z,6.63
2019-04-13T09:24:14.632Z,6.88
2019-04-13T09:27:00.721Z,7.37
2019-04-13T09:29:40.415Z,7.42
2019-04-13T09:32:06.436Z,7.48
2019-04-13T09:34:52.280Z,7.40
2019-04-13T09:37:32.830Z,7.65
2019-04-13T09:40:13.224Z,8.04
2019-04-13T09:42:39.189Z,8.02
2019-04-13T09:45:25.208Z,8.18
2019-04-13T09:48:24.232Z,7.81
2019-04-13T09:51:23.183Z,7.12
2019-04-13T09:54:02.552Z,6.49
2019-04-13T09:56:37.316Z,6.36
2019-04-13T09:59:02.979Z,6.58
2019-04-13T10:01:45.141Z,6.40
2019-04-13T10:04:23.629Z,6.21
2019-04-13T10:09:43.667Z,5.96
2019-04-13T10:12:44.535Z,5.63
2019-04-13T10:15:43.662Z,5.32
2019-04-13T10:21:28.485Z,5.20
2019-04-13T10:23:54.493Z,5.31
2019-04-13T10:26:20.508Z,5.26
2019-04-13T10:28:59.844Z,5.33
2019-04-13T10:31:39.633Z,5.24
2019-04-13T10:34:19.611Z,5.13
2019-04-13T10:36:45.625Z,5.16
2019-04-13T10:42:10.139Z,5.17
2019-04-13T10:50:52.871Z,5.57
2019-04-13T10:53:44.322Z,5.78
2019-04-13T10:56:10.428Z,5.82
2019-04-13T10:58:36.415Z,5.87
2019-04-13T11:01:16.036Z,5.90
2019-04-13T11:03:55.127Z,5.55
2019-04-13T11:06:34.244Z,5.52
2019-04-13T11:09:00.251Z,5.82
2019-04-13T11:11:46.148Z,5.42
2019-04-13T11:14:12.120Z,5.57
2019-04-13T11:16:38.119Z,5.84
2019-04-13T11:19:17.118Z,5.91
2019-04-13T11:21:43.151Z,6.08
2019-04-13T11:24:29.010Z,6.26
2019-04-13T11:26:55.005Z,6.09
2019-04-13T11:29:40.852Z,6.38
2019-04-13T11:32:48.523Z,6.21
2019-04-13T11:35:35.685Z,6.04
2019-04-13T11:38:02.540Z,6.07
2019-04-13T11:40:50.419Z,6.37
2019-04-13T11:43:34.968Z,6.72
2019-04-13T11:52:27.509Z,7.42
2019-04-13T11:55:01.235Z,7.38
2019-04-13T11:57:34.857Z,7.44
2019-04-13T12:15:38.796Z,7.17
2019-04-13T12:21:41.451Z,6.91
2019-04-13T12:26:50.971Z,6.64
2019-04-13T12:29:39.346Z,6.88
2019-04-13T12:35:07.945Z,6.95
2019-04-13T12:37:46.658Z,7.19
2019-04-13T12:43:37.061Z,7.41
2019-04-13T12:46:03.079Z,7.52
2019-04-13T12:48:29.040Z,7.25
2019-04-13T12:51:14.954Z,7.17
2019-04-13T12:53:54.151Z,7.25
2019-04-13T12:56:33.100Z,7.23
2019-04-13T12:58:59.091Z,7.28
2019-04-13T13:02:04.865Z,7.41
2019-04-13T13:04:50.962Z,7.50
2019-04-13T13:07:37.415Z,7.61
2019-04-13T13:10:25.550Z,7.37
2019-04-13T13:13:09.280Z,7.26
2019-04-13T13:15:48.532Z,7.31
2019-04-13T13:18:14.760Z,6.94
2019-04-13T13:21:00.609Z,6.98
2019-04-13T13:26:47.731Z,7.59
2019-04-13T13:29:12.035Z,7.22
2019-04-13T13:34:17.033Z,7.12
2019-04-13T13:37:04.931Z,7.12
2019-04-13T13:39:50.753Z,7.10
2019-04-13T13:42:29.867Z,7.05
2019-04-13T13:45:09.819Z,7.18
2019-04-13T13:47:48.863Z,7.30
2019-04-13T13:50:28.068Z,7.71
2019-04-13T13:52:54.056Z,7.75
2019-04-13T13:55:20.043Z,7.43
2019-04-13T13:58:03.753Z,7.56
2019-04-13T14:01:03.078Z,7.56
2019-04-13T14:03:29.053Z,7.49
2019-04-13T14:05:55.020Z,7.70
2019-04-13T14:08:44.329Z,7.77
2019-04-13T14:11:08.841Z,7.81
2019-04-13T14:13:54.736Z,7.89
2019-04-13T14:16:34.363Z,7.96
2019-04-13T14:19:13.357Z,7.84
2019-04-13T14:21:52.503Z,7.48
2019-04-13T14:24:32.221Z,7.38
2019-04-13T14:30:38.629Z,7.48
2019-04-13T14:33:18.222Z,7.81
2019-04-13T14:36:17.981Z,7.55
2019-04-13T14:39:01.045Z,7.38
2019-04-13T14:41:41.792Z,7.30
2019-04-13T14:44:21.509Z,7.39
2019-04-13T15:00:55.061Z,7.48
2019-04-13T15:03:40.934Z,7.58
2019-04-13T15:06:06.975Z,7.67
2019-04-13T15:08:52.868Z,7.56
2019-04-13T15:11:32.304Z,7.43
2019-04-13T15:14:11.226Z,7.79
2019-04-13T15:16:51.158Z,7.87
2019-04-13T15:26:06.014Z,7.38
2019-04-13T15:28:35.194Z,7.09
2019-04-13T15:31:30.747Z,7.12
2019-04-13T15:37:03.107Z,7.12
2019-04-13T15:39:39.889Z,6.91
2019-04-13T15:42:31.619Z,6.86
2019-04-13T15:44:52.170Z,6.73
2019-04-13T15:47:26.828Z,6.59
2019-04-13T15:49:59.017Z,6.45
2019-04-13T15:53:03.917Z,6.15
2019-04-13T15:55:37.460Z,6.09
2019-04-13T15:58:12.183Z,6.23
2019-04-13T16:04:09.455Z,6.37
2019-04-13T16:06:35.862Z,6.12
2019-04-13T16:09:50.910Z,6.15
2019-04-13T16:12:36.857Z,5.90
2019-04-13T16:18:23.984Z,5.85
2019-04-13T16:20:51.036Z,5.95
2019-04-13T16:23:49.932Z,5.76
2019-04-13T16:30:12.973Z,5.77
2019-04-13T16:32:59.918Z,5.84
2019-04-13T16:36:06.093Z,5.60
2019-04-13T16:38:54.587Z,5.75
2019-04-13T16:41:57.529Z,5.49
2019-04-13T16:44:29.377Z,5.65
2019-04-13T16:56:54.138Z,5.72
2019-04-13T17:00:01.610Z,5.49
2019-04-13T17:03:01.192Z,5.40
2019-04-13T17:05:47.170Z,5.55
2019-04-13T17:21:36.104Z,5.63
2019-04-13T17:27:32.654Z,5.30
2019-04-13T17:30:34.492Z,5.42
2019-04-13T17:33:15.528Z,5.72
2019-04-13T17:35:56.028Z,5.31
2019-04-13T17:38:35.753Z,5.48
2019-04-13T17:41:20.310Z,5.45
2019-04-13T17:44:03.887Z,5.47
2019-04-13T17:49:51.323Z,5.37
2019-04-13T17:52:57.216Z,5.21
2019-04-13T17:55:44.077Z,5.41
2019-04-13T17:58:30.010Z,5.46
2019-04-13T18:01:16.726Z,5.40
2019-04-13T18:04:23.114Z,5.37
2019-04-13T18:10:28.337Z,5.28
2019-04-13T18:13:13.792Z,5.15
2019-04-13T18:16:19.673Z,5.26
2019-04-13T18:24:47.342Z,4.92
2019-04-13T18:27:13.439Z,4.86
2019-04-13T18:30:10.119Z,4.94
2019-04-13T18:36:09.266Z,4.89
2019-04-13T18:42:13.388Z,4.88
2019-04-13T18:47:41.028Z,4.93
2019-04-13T18:50:28.986Z,4.63
2019-04-13T18:56:33.185Z,4.79
2019-04-13T18:58:59.372Z,4.69
2019-04-13T19:01:26.504Z,4.78
2019-04-13T19:07:59.170Z,4.90
2019-04-13T19:14:15.452Z,4.78
2019-04-13T19:23:23.502Z,4.75
2019-04-13T19:25:49.517Z,4.84
2019-04-13T19:34:49.463Z,5.01
2019-04-13T19:37:35.334Z,4.93
2019-04-13T19:40:14.256Z,4.77
2019-04-13T19:42:53.344Z,5.01
2019-04-13T19:54:52.248Z,4.93
2019-04-13T20:04:36.524Z,4.93
2019-04-13T20:07:15.472Z,4.80
2019-04-13T20:09:41.484Z,5.17
2019-04-13T20:12:27.380Z,4.95
2019-04-13T20:14:54.584Z,5.03
2019-04-13T20:21:28.934Z,5.19
2019-04-13T20:30:56.487Z,5.19
2019-04-13T20:33:37.174Z,4.98
2019-04-13T20:36:20.899Z,5.03
2019-04-13T20:38:45.396Z,5.15
2019-04-13T20:50:20.124Z,4.88
2019-04-13T20:53:31.460Z,5.25
2019-04-13T20:56:31.752Z,5.31
2019-04-13T20:59:10.922Z,5.08
2019-04-13T21:01:49.880Z,5.16
2019-04-13T21:04:30.598Z,5.26
2019-04-13T21:07:09.855Z,5.11
2019-04-13T21:09:35.832Z,5.30
2019-04-13T21:15:58.004Z,5.32
2019-04-13T21:21:54.613Z,5.39
2019-04-13T21:27:35.624Z,5.59
2019-04-13T21:30:01.631Z,5.59
2019-04-13T21:32:27.623Z,5.63
2019-04-13T21:34:53.586Z,5.65
2019-04-13T21:37:59.502Z,5.81
2019-04-13T21:44:26.712Z,5.62
2019-04-13T21:53:38.344Z,5.61
2019-04-13T21:56:26.744Z,5.78
2019-04-13T21:59:12.941Z,5.78
2019-04-13T22:02:20.174Z,5.70
2019-04-13T22:04:46.338Z,5.74
2019-04-13T22:07:13.520Z,5.56
2019-04-13T22:09:47.771Z,5.39
2019-04-13T22:15:46.305Z,5.40
2019-04-13T22:18:12.508Z,5.42
2019-04-13T22:23:49.760Z,5.23
2019-04-13T22:26:37.628Z,5.09
2019-04-13T22:32:31.788Z,5.16
2019-04-13T22:35:12.916Z,5.17
2019-04-13T22:37:39.031Z,5.10
2019-04-13T22:40:25.733Z,4.94
2019-04-13T22:49:36.318Z,4.95
2019-04-13T22:58:37.965Z,4.92
2019-04-13T23:04:21.207Z,4.89
2019-04-13T23:06:47.285Z,4.84
2019-04-13T23:09:13.251Z,4.80
2019-04-13T23:21:12.155Z,4.79
2019-04-13T23:27:39.684Z,4.77
2019-04-13T23:30:18.968Z,4.74
2019-04-13T23:32:57.978Z,4.74
2019-04-13T23:35:23.980Z,4.65
2019-04-13T23:38:30.998Z,4.68
2019-04-13T23:43:36.885Z,4.71
2019-04-13T23:46:22.788Z,4.63
2019-04-13T23:51:42.569Z,4.59
2019-04-13T23:54:22.424Z,4.57
